createdAt,value
2017-12-30T00:01:03.408Z,5.10
2017-12-30T00:03:31.053Z,6.90
2017-12-30T00:05:59.164Z,7.10
2017-12-30T00:08:26.841Z,6.07
2017-12-30T00:10:54.454Z,6.10
2017-12-30T00:13:22.076Z,6.37
2017-12-30T00:15:49.716Z,6.50
2017-12-30T00:18:18.369Z,5.43
2017-12-30T00:20:46.010Z,5.60
2017-12-30T00:23:13.620Z,8.83
2017-12-30T00:25:42.029Z,5.65
2017-12-30T00:28:09.633Z,6.20
2017-12-30T00:30:37.497Z,6.28
2017-12-30T00:33:05.160Z,6.07
2017-12-30T00:35:32.765Z,6.10
2017-12-30T00:38:00.374Z,6.30
2017-12-30T00:40:28.017Z,6.70
2017-12-30T00:42:55.671Z,6.70
2017-12-30T00:45:23.282Z,6.40
2017-12-30T00:47:50.943Z,6.57
2017-12-30T00:50:19.360Z,6.90
2017-12-30T00:52:46.972Z,9.77
2017-12-30T00:55:14.901Z,10.47
2017-12-30T00:57:42.574Z,8.10
2017-12-30T01:00:10.441Z,6.43
2017-12-30T01:02:38.050Z,7.33
2017-12-30T01:05:06.083Z,6.07
2017-12-30T01:07:33.730Z,5.60
2017-12-30T01:10:01.385Z,5.50
2017-12-30T01:12:29.000Z,5.97
2017-12-30T01:14:56.660Z,6.37
2017-12-30T01:17:24.300Z,7.40
2017-12-30T01:19:51.904Z,5.70
2017-12-30T01:22:19.560Z,8.10
2017-12-30T01:24:47.205Z,8.30
2017-12-30T01:27:14.840Z,7.87
2017-12-30T01:29:43.220Z,6.57
2017-12-30T01:32:11.633Z,6.33
2017-12-30T01:34:39.244Z,5.83
2017-12-30T01:37:06.893Z,6.30
2017-12-30T01:39:34.508Z,7.25
2017-12-30T01:42:02.305Z,6.93
2017-12-30T01:44:29.906Z,6.60
2017-12-30T01:46:57.513Z,6.70
2017-12-30T01:49:25.169Z,7.73
2017-12-30T01:51:52.788Z,7.10
2017-12-30T01:54:21.515Z,6.93
2017-12-30T01:56:49.153Z,6.63
2017-12-30T01:59:16.761Z,7.43
2017-12-30T02:01:44.712Z,7.03
2017-12-30T02:04:12.872Z,6.53
2017-12-30T02:06:40.489Z,6.33
2017-12-30T02:09:08.129Z,6.93
2017-12-30T02:11:35.736Z,6.57
2017-12-30T02:14:03.558Z,6.87
2017-12-30T02:16:31.946Z,6.27
2017-12-30T02:19:00.371Z,12.57
2017-12-30T02:21:28.032Z,7.23
2017-12-30T02:23:55.917Z,7.90
2017-12-30T02:26:23.525Z,6.93
2017-12-30T02:28:51.130Z,7.37
2017-12-30T02:31:18.776Z,9.87
2017-12-30T02:33:46.393Z,7.90
2017-12-30T02:36:14.038Z,7.85
2017-12-30T02:38:42.475Z,8.60
2017-12-30T02:41:10.101Z,9.70
2017-12-30T02:43:37.716Z,8.60
2017-12-30T02:46:05.412Z,8.03
2017-12-30T02:48:34.068Z,8.73
2017-12-30T02:51:01.681Z,9.75
2017-12-30T02:53:29.330Z,10.83
2017-12-30T02:55:56.961Z,9.50
2017-12-30T02:58:24.612Z,9.10
2017-12-30T03:00:52.994Z,12.90
2017-12-30T03:03:20.652Z,11.15
2017-12-30T03:05:48.257Z,10.40
2017-12-30T03:08:15.865Z,9.37
2017-12-30T03:10:43.516Z,11.40
2017-12-30T03:13:11.134Z,10.80
2017-12-30T03:15:38.793Z,10.90
2017-12-30T03:18:06.404Z,15.17
2017-12-30T03:20:34.047Z,11.43
2017-12-30T03:23:01.676Z,11.63
2017-12-30T03:25:29.333Z,14.33
2017-12-30T03:27:56.986Z,11.77
2017-12-30T03:30:25.203Z,13.03
2017-12-30T03:32:52.865Z,14.43
2017-12-30T03:35:20.509Z,10.50
2017-12-30T03:37:48.121Z,15.33
2017-12-30T03:40:16.536Z,14.25
2017-12-30T03:42:44.148Z,12.13
2017-12-30T03:45:11.797Z,15.93
2017-12-30T03:47:40.756Z,12.80
2017-12-30T03:50:08.414Z,15.53
2017-12-30T03:52:36.025Z,11.97
2017-12-30T03:55:03.640Z,14.03
2017-12-30T03:57:31.929Z,13.30
2017-12-30T03:59:59.581Z,14.77
2017-12-30T04:02:27.219Z,12.50
2017-12-30T04:04:54.865Z,12.13
2017-12-30T04:07:22.481Z,14.30
2017-12-30T04:09:50.124Z,15.60
2017-12-30T04:12:17.742Z,19.90
2017-12-30T04:14:45.533Z,13.37
2017-12-30T04:17:13.186Z,14.30
2017-12-30T04:19:40.804Z,18.30
2017-12-30T04:22:08.458Z,15.33
2017-12-30T04:24:36.873Z,19.33
2017-12-30T04:27:05.155Z,16.00
2017-12-30T04:29:32.800Z,16.47
2017-12-30T04:32:00.461Z,16.50
2017-12-30T04:34:28.073Z,16.20
2017-12-30T04:36:55.928Z,16.67
2017-12-30T04:39:24.308Z,15.25
2017-12-30T04:41:51.962Z,17.77
2017-12-30T04:44:20.237Z,12.00
2017-12-30T04:46:47.893Z,17.37
2017-12-30T04:49:15.509Z,21.17
2017-12-30T04:51:43.160Z,18.73
2017-12-30T04:54:11.801Z,15.63
2017-12-30T04:56:39.450Z,14.47
2017-12-30T04:59:07.109Z,15.80
2017-12-30T05:01:34.764Z,21.10
2017-12-30T05:04:02.546Z,16.50
2017-12-30T05:06:30.661Z,15.47
2017-12-30T05:08:59.041Z,16.70
2017-12-30T05:11:27.025Z,16.77
2017-12-30T05:13:54.911Z,22.73
2017-12-30T05:16:22.525Z,18.37
2017-12-30T05:18:50.189Z,16.58
2017-12-30T05:21:18.569Z,25.27
2017-12-30T05:23:46.221Z,21.83
2017-12-30T05:26:14.643Z,21.50
2017-12-30T05:28:42.265Z,17.17
2017-12-30T05:31:09.912Z,21.37
2017-12-30T05:33:38.297Z,20.20
2017-12-30T05:36:06.729Z,20.33
2017-12-30T05:38:34.337Z,22.87
2017-12-30T05:41:01.996Z,27.87
2017-12-30T05:43:29.608Z,20.97
2017-12-30T05:45:57.262Z,29.10
2017-12-30T05:48:24.917Z,19.30
2017-12-30T05:50:52.569Z,29.03
2017-12-30T05:53:20.986Z,21.83
2017-12-30T05:55:48.597Z,20.17
2017-12-30T05:58:16.252Z,23.80
2017-12-30T06:00:43.961Z,21.40
2017-12-30T06:03:11.617Z,22.10
2017-12-30T06:05:39.264Z,24.73
2017-12-30T06:08:06.872Z,22.43
2017-12-30T06:10:34.524Z,25.30
2017-12-30T06:13:02.159Z,23.45
2017-12-30T06:15:29.924Z,21.40
2017-12-30T06:17:57.680Z,21.43
2017-12-30T06:20:25.293Z,23.83
2017-12-30T06:22:53.267Z,21.70
2017-12-30T06:25:20.877Z,23.83
2017-12-30T06:27:48.537Z,22.80
2017-12-30T06:30:16.149Z,17.60
2017-12-30T06:32:44.125Z,24.57
2017-12-30T06:35:11.778Z,30.70
2017-12-30T06:37:39.433Z,22.20
2017-12-30T06:40:07.374Z,21.58
2017-12-30T06:42:34.988Z,22.70
2017-12-30T06:45:02.597Z,19.00
2017-12-30T06:47:30.947Z,22.98
2017-12-30T06:49:58.561Z,22.42
2017-12-30T06:52:26.203Z,23.65
2017-12-30T06:54:53.857Z,21.08
2017-12-30T06:57:22.232Z,22.50
2017-12-30T06:59:50.659Z,28.83
2017-12-30T07:02:18.483Z,23.70
2017-12-30T07:04:46.110Z,21.57
2017-12-30T07:07:14.492Z,21.63
2017-12-30T07:09:42.837Z,21.57
2017-12-30T07:12:10.492Z,21.97
2017-12-30T07:14:38.176Z,18.93
2017-12-30T07:17:05.832Z,27.27
2017-12-30T07:19:33.445Z,23.83
2017-12-30T07:22:01.961Z,24.40
2017-12-30T07:24:31.032Z,22.40
2017-12-30T07:26:59.633Z,23.03
2017-12-30T07:29:27.396Z,27.83
2017-12-30T07:31:56.252Z,24.33
2017-12-30T07:34:24.232Z,21.13
2017-12-30T07:36:54.178Z,25.90
2017-12-30T07:39:22.013Z,23.13
2017-12-30T07:41:50.308Z,24.70
2017-12-30T07:44:17.920Z,24.60
2017-12-30T07:46:46.213Z,22.27
2017-12-30T07:49:13.825Z,23.03
2017-12-30T07:51:41.665Z,23.47
2017-12-30T07:54:09.759Z,23.30
2017-12-30T07:56:37.408Z,20.87
2017-12-30T07:59:05.025Z,18.67
2017-12-30T08:01:32.693Z,17.40
2017-12-30T08:04:01.782Z,21.63
2017-12-30T08:06:30.474Z,18.10
2017-12-30T08:08:58.162Z,21.57
2017-12-30T08:11:25.810Z,24.20
2017-12-30T08:13:53.429Z,25.60
2017-12-30T08:16:21.440Z,22.97
2017-12-30T08:18:52.671Z,17.20
2017-12-30T08:21:20.383Z,21.73
2017-12-30T08:23:48.844Z,23.13
2017-12-30T08:26:16.493Z,20.65
2017-12-30T08:28:44.153Z,27.50
2017-12-30T08:31:12.622Z,22.80
2017-12-30T08:33:41.081Z,14.20
2017-12-30T08:36:08.700Z,25.70
2017-12-30T08:38:36.314Z,20.25
2017-12-30T08:41:04.213Z,20.58
2017-12-30T08:43:32.056Z,20.05
2017-12-30T08:45:59.713Z,14.68
2017-12-30T08:48:27.338Z,17.52
2017-12-30T08:50:55.025Z,17.95
2017-12-30T08:53:22.718Z,17.17
2017-12-30T08:55:56.229Z,16.23
2017-12-30T08:58:24.180Z,16.87
2017-12-30T09:00:52.393Z,15.25
2017-12-30T09:03:20.353Z,17.93
2017-12-30T09:05:49.506Z,14.97
2017-12-30T09:08:17.583Z,17.83
2017-12-30T09:10:45.494Z,18.85
2017-12-30T09:13:13.105Z,9.50
2017-12-30T09:15:40.860Z,14.82
2017-12-30T09:18:08.472Z,12.83
2017-12-30T09:20:36.895Z,18.77
2017-12-30T09:23:04.582Z,15.17
2017-12-30T09:25:32.322Z,8.67
2017-12-30T09:27:59.945Z,20.00
2017-12-30T09:30:28.378Z,10.27
2017-12-30T09:32:56.046Z,10.38
2017-12-30T09:35:23.688Z,15.00
2017-12-30T09:37:51.673Z,11.47
2017-12-30T09:40:19.562Z,16.17
2017-12-30T09:42:47.173Z,15.60
2017-12-30T09:45:14.831Z,11.07
2017-12-30T09:47:42.436Z,14.10
2017-12-30T09:50:10.871Z,12.50
2017-12-30T09:52:38.530Z,20.67
2017-12-30T09:55:06.143Z,8.53
2017-12-30T09:57:33.813Z,13.68
2017-12-30T10:00:02.272Z,11.57
2017-12-30T10:02:30.705Z,14.37
2017-12-30T10:04:58.590Z,10.00
2017-12-30T10:07:26.221Z,14.33
2017-12-30T10:09:54.118Z,17.30
2017-12-30T10:12:21.918Z,13.63
2017-12-30T10:14:50.344Z,9.33
2017-12-30T10:17:18.006Z,10.93
2017-12-30T10:19:45.621Z,12.20
2017-12-30T10:22:13.266Z,9.90
2017-12-30T10:24:41.697Z,9.77
2017-12-30T10:27:09.361Z,18.03
2017-12-30T10:29:36.976Z,11.63
2017-12-30T10:32:04.640Z,10.43
2017-12-30T10:34:32.950Z,7.22
2017-12-30T10:37:00.573Z,10.15
2017-12-30T10:39:28.257Z,7.03
2017-12-30T10:41:56.201Z,7.68
2017-12-30T10:44:24.019Z,6.35
2017-12-30T10:46:51.626Z,11.20
2017-12-30T10:49:19.274Z,4.32
2017-12-30T10:51:47.648Z,10.88
2017-12-30T10:54:16.062Z,9.13
2017-12-30T10:56:43.720Z,10.30
2017-12-30T10:59:11.333Z,11.50
2017-12-30T11:01:39.266Z,10.90
2017-12-30T11:04:07.046Z,16.90
2017-12-30T11:06:34.657Z,7.90
2017-12-30T11:09:02.326Z,10.20
2017-12-30T11:11:30.023Z,8.20
2017-12-30T11:13:57.876Z,8.50
2017-12-30T11:16:25.518Z,8.07
2017-12-30T11:18:53.821Z,9.13
2017-12-30T11:21:22.188Z,9.63
2017-12-30T11:23:50.448Z,9.13
2017-12-30T11:26:18.152Z,8.80
2017-12-30T11:28:45.809Z,8.80
2017-12-30T11:31:13.512Z,7.40
2017-12-30T11:33:41.142Z,7.80
2017-12-30T11:36:08.784Z,9.13
2017-12-30T11:38:36.429Z,8.37
2017-12-30T11:41:04.042Z,8.93
2017-12-30T11:43:31.692Z,8.20
2017-12-30T11:45:59.561Z,9.60
2017-12-30T11:48:27.389Z,9.85
2017-12-30T11:50:54.999Z,6.60
2017-12-30T11:53:22.649Z,5.10
2017-12-30T11:55:51.069Z,4.07
2017-12-30T11:58:19.581Z,5.30
2017-12-30T12:00:48.397Z,4.50
2017-12-30T12:03:16.773Z,4.67
2017-12-30T12:05:45.158Z,5.60
2017-12-30T12:08:12.802Z,7.40
2017-12-30T12:10:41.217Z,4.10
2017-12-30T12:13:08.838Z,7.20
2017-12-30T12:15:37.273Z,8.13
2017-12-30T12:18:05.154Z,7.40
2017-12-30T12:20:32.936Z,3.27
2017-12-30T12:23:01.313Z,3.27
2017-12-30T12:25:28.928Z,5.70
2017-12-30T12:27:56.545Z,6.40
2017-12-30T12:30:24.972Z,3.58
2017-12-30T12:32:52.581Z,5.67
2017-12-30T12:35:20.224Z,6.37
2017-12-30T12:37:48.289Z,7.45
2017-12-30T12:40:17.298Z,6.78
2017-12-30T12:42:44.949Z,3.33
2017-12-30T12:45:12.697Z,8.82
2017-12-30T12:47:40.339Z,8.35
2017-12-30T12:50:08.463Z,5.43
2017-12-30T12:52:36.112Z,3.90
2017-12-30T12:55:04.505Z,2.93
2017-12-30T12:57:32.525Z,5.67
2017-12-30T13:00:00.279Z,8.65
2017-12-30T13:02:29.425Z,3.62
2017-12-30T13:04:57.265Z,4.13
2017-12-30T13:07:25.020Z,2.50
2017-12-30T13:09:52.879Z,5.03
2017-12-30T13:12:20.529Z,6.80
2017-12-30T13:14:49.167Z,5.13
2017-12-30T13:17:17.669Z,4.00
2017-12-30T13:19:45.674Z,9.60
2017-12-30T13:22:13.960Z,2.80
2017-12-30T13:24:41.605Z,3.67
2017-12-30T13:27:09.357Z,2.72
2017-12-30T13:29:37.026Z,2.60
2017-12-30T13:32:04.629Z,4.70
2017-12-30T13:34:32.949Z,2.90
2017-12-30T13:37:00.716Z,2.87
2017-12-30T13:39:28.730Z,4.28
2017-12-30T13:41:56.426Z,5.93
2017-12-30T13:44:25.058Z,2.43
2017-12-30T13:46:52.721Z,5.73
2017-12-30T13:49:21.938Z,6.20
2017-12-30T13:51:56.328Z,4.40
2017-12-30T13:54:29.456Z,2.30
2017-12-30T13:56:58.080Z,2.77
2017-12-30T13:59:25.703Z,5.00
2017-12-30T14:01:54.142Z,4.00
2017-12-30T14:04:21.998Z,6.37
2017-12-30T14:06:50.382Z,2.80
2017-12-30T14:09:18.133Z,5.73
2017-12-30T14:11:45.821Z,2.75
2017-12-30T14:14:13.484Z,4.60
2017-12-30T14:16:42.659Z,2.30
2017-12-30T14:19:10.347Z,2.00
2017-12-30T14:21:39.070Z,5.30
2017-12-30T14:24:07.118Z,9.70
2017-12-30T14:26:35.071Z,5.00
2017-12-30T14:29:03.950Z,4.97
2017-12-30T14:31:32.461Z,2.50
2017-12-30T14:34:00.281Z,2.30
2017-12-30T14:36:29.720Z,3.20
2017-12-30T14:38:57.436Z,3.72
2017-12-30T14:41:25.369Z,2.93
2017-12-30T14:43:53.017Z,2.43
2017-12-30T14:46:21.729Z,3.28
2017-12-30T14:48:49.508Z,3.33
2017-12-30T14:51:18.157Z,3.90
2017-12-30T14:53:45.818Z,3.90
2017-12-30T14:56:13.593Z,3.20
2017-12-30T14:58:42.625Z,4.00
2017-12-30T15:01:10.282Z,3.40
2017-12-30T15:03:37.910Z,4.27
2017-12-30T15:06:05.906Z,3.58
2017-12-30T15:08:33.562Z,4.20
2017-12-30T15:11:02.100Z,2.50
2017-12-30T15:13:29.894Z,2.92
2017-12-30T15:15:58.586Z,4.28
2017-12-30T15:18:27.190Z,5.97
2017-12-30T15:20:54.903Z,3.80
2017-12-30T15:23:22.653Z,4.07
2017-12-30T15:25:50.544Z,3.90
2017-12-30T15:28:18.257Z,5.60
2017-12-30T15:30:46.636Z,4.72
2017-12-30T15:33:15.556Z,4.67
2017-12-30T15:35:43.438Z,5.40
2017-12-30T15:38:12.034Z,4.33
2017-12-30T15:40:40.909Z,3.86
2017-12-30T15:43:08.795Z,5.57
2017-12-30T15:45:36.601Z,6.00
2017-12-30T15:48:05.325Z,5.23
2017-12-30T15:50:33.003Z,5.00
2017-12-30T15:53:00.629Z,5.13
2017-12-30T15:55:28.264Z,5.53
2017-12-30T15:57:56.900Z,6.03
2017-12-30T16:00:24.660Z,6.80
2017-12-30T16:02:52.301Z,5.90
2017-12-30T16:05:19.961Z,7.47
2017-12-30T16:07:47.646Z,7.30
2017-12-30T16:10:16.105Z,10.30
2017-12-30T16:12:43.784Z,6.83
2017-12-30T16:15:11.860Z,6.17
2017-12-30T16:17:39.628Z,9.63
2017-12-30T16:20:07.405Z,8.07
2017-12-30T16:22:35.056Z,9.00
2017-12-30T16:25:02.730Z,7.68
2017-12-30T16:27:30.359Z,8.57
2017-12-30T16:29:58.249Z,7.78
2017-12-30T16:32:25.904Z,8.40
2017-12-30T16:34:53.655Z,11.12
2017-12-30T16:37:21.502Z,11.50
2017-12-30T16:39:49.177Z,12.17
2017-12-30T16:42:18.092Z,11.82
2017-12-30T16:44:46.473Z,12.20
2017-12-30T16:47:20.538Z,14.40
2017-12-30T16:49:50.253Z,17.17
2017-12-30T16:52:18.834Z,12.68
2017-12-30T16:54:48.444Z,12.70
2017-12-30T16:57:17.309Z,17.97
2017-12-30T16:59:46.422Z,13.68
2017-12-30T17:02:16.191Z,9.40
2017-12-30T17:04:45.837Z,15.60
2017-12-30T17:07:14.846Z,12.20
2017-12-30T17:09:44.820Z,10.10
2017-12-30T17:12:14.309Z,10.30
2017-12-30T17:14:46.210Z,7.80
2017-12-30T17:17:16.119Z,8.23
2017-12-30T17:19:45.010Z,10.00
2017-12-30T17:22:14.658Z,7.77
2017-12-30T17:24:43.756Z,6.00
2017-12-30T17:27:13.081Z,8.43
2017-12-30T17:29:42.017Z,6.07
2017-12-30T17:32:10.194Z,5.33
2017-12-30T17:34:38.877Z,4.10
2017-12-30T17:37:07.699Z,7.37
2017-12-30T17:39:36.910Z,4.23
2017-12-30T17:42:05.183Z,5.10
2017-12-30T17:44:34.142Z,4.77
2017-12-30T17:47:03.331Z,2.67
2017-12-30T17:49:32.251Z,3.55
2017-12-30T17:52:00.875Z,5.65
2017-12-30T17:54:29.158Z,3.67
2017-12-30T17:56:57.921Z,3.80
2017-12-30T17:59:27.197Z,3.62
2017-12-30T18:01:55.764Z,4.47
2017-12-30T18:04:24.365Z,3.97
2017-12-30T18:06:53.901Z,5.70
2017-12-30T18:09:23.386Z,7.10
2017-12-30T18:11:52.511Z,4.93
2017-12-30T18:14:21.126Z,9.15
2017-12-30T18:16:50.184Z,9.73
2017-12-30T18:19:18.940Z,7.33
2017-12-30T18:21:47.156Z,5.22
2017-12-30T18:24:15.845Z,6.67
2017-12-30T18:26:45.187Z,6.00
2017-12-30T18:29:16.958Z,8.03
2017-12-30T18:31:45.453Z,3.53
2017-12-30T18:34:15.007Z,4.43
2017-12-30T18:36:43.957Z,3.77
2017-12-30T18:39:12.623Z,12.87
2017-12-30T18:41:40.592Z,7.13
2017-12-30T18:44:08.684Z,4.15
2017-12-30T18:46:36.329Z,5.57
2017-12-30T18:49:04.127Z,10.80
2017-12-30T18:51:31.793Z,8.20
2017-12-30T18:53:59.652Z,4.53
2017-12-30T18:56:27.293Z,5.40
2017-12-30T18:58:55.171Z,8.80
2017-12-30T19:01:23.129Z,8.37
2017-12-30T19:03:50.781Z,5.97
2017-12-30T19:06:18.406Z,3.12
2017-12-30T19:08:46.061Z,7.67
2017-12-30T19:11:13.667Z,5.63
2017-12-30T19:13:41.438Z,4.03
2017-12-30T19:16:09.205Z,7.17
2017-12-30T19:18:36.857Z,3.20
2017-12-30T19:21:04.468Z,6.75
2017-12-30T19:23:32.270Z,8.50
2017-12-30T19:26:00.321Z,8.10
2017-12-30T19:28:27.928Z,10.53
2017-12-30T19:30:55.537Z,2.57
2017-12-30T19:33:23.334Z,4.00
2017-12-30T19:35:50.937Z,4.73
2017-12-30T19:38:19.352Z,4.47
2017-12-30T19:40:47.016Z,2.00
2017-12-30T19:43:14.630Z,7.40
2017-12-30T19:45:42.250Z,7.00
2017-12-30T19:48:09.902Z,5.10
2017-12-30T19:50:37.569Z,6.18
2017-12-30T19:53:05.233Z,3.00
2017-12-30T19:55:33.301Z,8.85
2017-12-30T19:58:00.905Z,7.10
2017-12-30T20:00:28.533Z,7.17
2017-12-30T20:02:56.288Z,14.33
2017-12-30T20:05:23.938Z,13.33
2017-12-30T20:07:51.745Z,4.57
2017-12-30T20:10:20.398Z,4.96
2017-12-30T20:12:48.037Z,5.50
2017-12-30T20:15:15.800Z,9.13
2017-12-30T20:17:48.085Z,1.80
2017-12-30T20:20:16.059Z,5.93
2017-12-30T20:22:43.696Z,4.03
2017-12-30T20:25:11.341Z,7.77
2017-12-30T20:27:38.964Z,6.80
2017-12-30T20:30:06.657Z,4.37
2017-12-30T20:32:34.357Z,1.63
2017-12-30T20:35:02.005Z,5.03
2017-12-30T20:37:29.609Z,4.00
2017-12-30T20:39:58.603Z,9.47
2017-12-30T20:42:27.053Z,11.33
2017-12-30T20:44:55.481Z,8.17
2017-12-30T20:47:23.385Z,7.43
2017-12-30T20:49:50.993Z,9.97
2017-12-30T20:52:18.666Z,6.45
2017-12-30T20:54:46.462Z,7.23
2017-12-30T20:57:15.054Z,4.40
2017-12-30T20:59:42.824Z,7.05
2017-12-30T21:02:10.475Z,7.53
2017-12-30T21:04:38.321Z,3.40
2017-12-30T21:07:06.334Z,6.60
2017-12-30T21:09:33.940Z,6.10
2017-12-30T21:12:01.597Z,3.47
2017-12-30T21:14:29.246Z,4.70
2017-12-30T21:16:56.939Z,5.43
2017-12-30T21:19:24.703Z,6.93
2017-12-30T21:21:52.325Z,4.22
2017-12-30T21:24:19.975Z,4.83
2017-12-30T21:26:47.641Z,5.80
2017-12-30T21:29:15.441Z,4.00
2017-12-30T21:31:43.059Z,3.83
2017-12-30T21:34:10.778Z,8.00
2017-12-30T21:36:38.402Z,7.97
2017-12-30T21:39:06.349Z,4.37
2017-12-30T21:41:35.438Z,8.32
2017-12-30T21:44:03.864Z,9.40
2017-12-30T21:46:31.544Z,1.40
2017-12-30T21:48:59.161Z,5.95
2017-12-30T21:51:26.838Z,5.40
2017-12-30T21:53:54.449Z,4.60
2017-12-30T21:56:22.097Z,5.22
2017-12-30T21:58:50.559Z,8.10
2017-12-30T22:01:18.385Z,4.33
2017-12-30T22:03:46.041Z,5.87
2017-12-30T22:06:13.831Z,14.55
2017-12-30T22:08:41.488Z,4.93
2017-12-30T22:11:09.097Z,4.67
2017-12-30T22:13:36.721Z,6.30
2017-12-30T22:16:04.368Z,4.77
2017-12-30T22:18:32.541Z,6.73
2017-12-30T22:21:00.580Z,9.70
2017-12-30T22:23:28.316Z,8.33
2017-12-30T22:25:56.698Z,6.03
2017-12-30T22:28:25.113Z,12.63
2017-12-30T22:30:52.809Z,4.47
2017-12-30T22:33:20.425Z,2.90
2017-12-30T22:35:48.259Z,4.97
2017-12-30T22:38:15.869Z,3.40
2017-12-30T22:40:43.513Z,5.30
2017-12-30T22:43:11.219Z,1.50
2017-12-30T22:45:39.073Z,3.80
2017-12-30T22:48:06.677Z,6.30
2017-12-30T22:50:35.054Z,7.95
2017-12-30T22:53:02.701Z,8.77
2017-12-30T22:55:31.074Z,4.37
2017-12-30T22:57:59.529Z,7.30
2017-12-30T23:03:33.130Z,5.60
2017-12-30T23:06:00.795Z,5.40
2017-12-30T23:08:28.449Z,5.57
2017-12-30T23:10:56.230Z,13.97
2017-12-30T23:13:23.840Z,7.35
2017-12-30T23:15:51.504Z,8.23
2017-12-30T23:18:19.295Z,8.00
2017-12-30T23:20:46.945Z,14.15
2017-12-30T23:23:14.737Z,11.63
2017-12-30T23:25:42.379Z,6.95
2017-12-30T23:28:10.005Z,4.93
2017-12-30T23:30:37.653Z,2.37
2017-12-30T23:33:06.237Z,4.03
2017-12-30T23:35:33.881Z,4.72
2017-12-30T23:38:01.827Z,4.80
2017-12-30T23:40:29.492Z,7.43
2017-12-30T23:42:57.139Z,10.67
2017-12-30T23:45:24.752Z,14.32
2017-12-30T23:47:52.569Z,19.13
2017-12-30T23:50:20.507Z,12.63
2017-12-30T23:52:48.153Z,9.20
2017-12-30T23:55:15.769Z,11.07
2017-12-30T23:57:43.421Z,16.00
